Terminal Aerodrome Forecast
Issued by NWS

Home | Current Version | Previous Version | Text Only | Print | Product List | Glossary On
Versions: 1 2 3 4 5 6 7 8 9 10 11 12 13 14 15 16 17 18 19
000
FTUS43 KGRR 282300 RRA
TAFMKG
TAF
KMKG 282342Z 2900/2924 15010KT P6SM BKN070
     FM290300 16010KT 6SM -SNPL OVC025
     FM290600 17010KT 6SM -FZRA OVC020
     FM290900 17009KT 6SM BR OVC015
     FM291500 18012G20KT P6SM OVC025=

USA.gov is the U.S. government's official web portal to all federal, state and local government web resources and services.